Time;durP1;ratioP1;P1;durP2;ratioP2;P2;SDS_P1;SDS_P2;PMS_P1;PMS_P2;Temp;Humidity;BMP_temperature;BMP_pressure;BME280_temperature;BME280_humidity;BME280_pressure;Samples;Min_cycle;Max_cycle;Signal;HPM_P1;HPM_P2
2022/01/23 00:00:21;;;;;;;27.80;12.70;;;;;;;-1.22;100.00;94422.19;2094030;28;20100;-82
2022/01/23 00:01:23;;;;;;;29.63;13.07;;;;;;;-1.21;100.00;94420.34;2091286;28;20100;-81
2022/01/23 00:02:27;;;;;;;35.17;12.82;;;;;;;-0.99;100.00;94414.94;2081971;28;20036;-80
2022/01/23 00:03:28;;;;;;;27.05;12.93;;;;;;;-1.08;100.00;94419.41;2090859;28;20032;-82
2022/01/23 00:04:29;;;;;;;28.10;12.52;;;;;;;-0.89;100.00;94411.22;2098149;28;20016;-82
2022/01/23 00:05:34;;;;;;;22.98;11.93;;;;;;;-1.22;100.00;94416.19;2089889;28;20471;-80
2022/01/23 00:06:35;;;;;;;28.23;11.80;;;;;;;-1.25;100.00;94409.69;2078904;28;20032;-81
2022/01/23 00:07:38;;;;;;;32.90;13.05;;;;;;;-1.24;100.00;94411.22;2081601;28;20031;-82
2022/01/23 00:08:39;;;;;;;22.20;11.48;;;;;;;-1.22;100.00;94413.56;2081981;28;20498;-81
2022/01/23 00:09:41;;;;;;;35.58;13.60;;;;;;;-1.17;100.00;94408.91;2081746;28;20461;-82
2022/01/23 00:10:44;;;;;;;36.53;14.38;;;;;;;-1.34;100.00;94411.53;2081802;28;20048;-80
2022/01/23 00:11:52;;;;;;;27.05;13.15;;;;;;;-1.35;100.00;94413.41;2090150;28;20037;-82
2022/01/23 00:13:09;;;;;;;33.00;14.40;;;;;;;-1.40;100.00;94410.16;2084887;28;20084;-80
2022/01/23 00:18:07;;;;;;;27.35;12.70;;;;;;;-1.39;100.00;94424.81;2106537;28;20089;-81
2022/01/23 00:19:10;;;;;;;25.75;12.70;;;;;;;-1.30;100.00;94420.34;2098221;28;20129;-81
2022/01/23 00:20:32;;;;;;;32.08;13.07;;;;;;;-1.41;100.00;94427.72;2104936;28;20036;-81
2022/01/23 00:21:34;;;;;;;28.95;13.32;;;;;;;-1.22;100.00;94418.81;2097923;28;20032;-80
2022/01/23 00:31:20;;;;;;;23.73;10.77;;;;;;;-1.42;100.00;94426.19;2099928;28;19962;-82
2022/01/23 00:32:21;;;;;;;26.77;13.20;;;;;;;-1.38;100.00;94426.34;2089679;28;20025;-82
2022/01/23 00:33:23;;;;;;;32.47;13.38;;;;;;;-1.44;100.00;94428.34;2081582;28;20029;-81
2022/01/23 00:34:24;;;;;;;27.08;12.80;;;;;;;-1.43;100.00;94429.88;2090500;28;20025;-82
2022/01/23 00:35:26;;;;;;;25.85;12.15;;;;;;;-1.47;100.00;94421.09;2081556;28;20474;-81
2022/01/23 00:36:28;;;;;;;26.90;12.02;;;;;;;-1.39;100.00;94415.09;2090061;28;20029;-81
2022/01/23 00:37:29;;;;;;;30.58;12.98;;;;;;;-1.21;100.00;94415.09;2089973;28;20024;-80
2022/01/23 00:38:30;;;;;;;28.17;13.15;;;;;;;-1.23;100.00;94409.38;2097214;28;20016;-80
2022/01/23 00:39:31;;;;;;;29.90;12.35;;;;;;;-1.28;100.00;94413.69;2089660;28;20044;-81
2022/01/23 00:40:35;;;;;;;30.10;12.65;;;;;;;-1.38;100.00;94408.75;2097921;28;20405;-81
2022/01/23 00:41:36;;;;;;;26.92;13.10;;;;;;;-1.36;100.00;94403.19;2098248;28;20413;-81
2022/01/23 00:42:37;;;;;;;27.77;13.82;;;;;;;-1.41;100.00;94401.50;2089854;28;20032;-81
2022/01/23 00:43:41;;;;;;;31.65;13.23;;;;;;;-1.45;100.00;94407.66;2089615;28;20119;-82
2022/01/23 00:44:46;;;;;;;32.20;14.00;;;;;;;-1.41;100.00;94408.59;2090106;28;20025;-81
2022/01/23 00:45:56;;;;;;;34.72;14.38;;;;;;;-1.39;100.00;94406.44;2082527;28;20049;-81
2022/01/23 00:47:04;;;;;;;31.60;12.45;;;;;;;-1.42;100.00;94407.06;2091840;28;20138;-81
2022/01/23 00:48:08;;;;;;;30.33;13.32;;;;;;;-1.33;100.00;94413.84;2098796;28;20103;-80
2022/01/23 00:50:10;;;;;;;32.42;14.18;;;;;;;-1.29;100.00;94412.16;2105467;28;20066;-81
2022/01/23 00:51:11;;;;;;;33.30;13.45;;;;;;;-1.33;100.00;94411.22;2105766;28;20056;-81
2022/01/23 00:52:12;;;;;;;34.35;14.70;;;;;;;-1.32;100.00;94404.91;2097783;28;20074;-81
2022/01/23 00:53:14;;;;;;;33.50;15.23;;;;;;;-1.30;100.00;94412.47;2086486;28;20128;-80
2022/01/23 00:54:15;;;;;;;29.17;13.73;;;;;;;-1.18;100.00;94404.75;2089883;28;20058;-81
2022/01/23 00:55:19;;;;;;;34.55;14.65;;;;;;;-1.24;100.00;94408.59;2094908;28;20036;-82
2022/01/23 00:56:22;;;;;;;31.25;14.30;;;;;;;-1.21;100.00;94407.22;2090427;28;20025;-81
2022/01/23 00:57:27;;;;;;;31.00;14.32;;;;;;;-1.22;100.00;94406.47;2089679;28;20028;-81
2022/01/23 00:58:58;;;;;;;33.92;15.80;;;;;;;-1.30;100.00;94413.25;2082426;28;20026;-80
2022/01/23 01:00:04;;;;;;;30.48;13.73;;;;;;;-1.32;100.00;94425.91;2084274;28;20050;-81
2022/01/23 01:01:09;;;;;;;34.92;13.05;;;;;;;-1.28;100.00;94421.56;2082070;28;20064;-81
2022/01/23 01:02:15;;;;;;;32.67;14.23;;;;;;;-1.29;100.00;94419.25;2086182;28;20060;-81
2022/01/23 01:03:19;;;;;;;30.60;13.15;;;;;;;-1.33;100.00;94419.09;2081792;28;20017;-80
2022/01/23 01:04:22;;;;;;;29.75;13.52;;;;;;;-1.13;100.00;94414.31;2089676;28;20635;-81
2022/01/23 01:05:26;;;;;;;25.92;11.90;;;;;;;-1.10;100.00;94418.94;2089573;28;20033;-81
2022/01/23 01:06:27;;;;;;;26.33;12.60;;;;;;;-1.19;100.00;94421.56;2088915;28;20043;-81
2022/01/23 01:07:28;;;;;;;24.15;11.35;;;;;;;-1.25;100.00;94427.28;2096264;28;20029;-81
2022/01/23 01:08:33;;;;;;;24.92;11.25;;;;;;;-1.31;100.00;94424.06;2089497;28;20480;-81
2022/01/23 01:09:34;;;;;;;25.15;11.13;;;;;;;-1.17;100.00;94429.91;2081653;28;20029;-81
2022/01/23 01:10:56;;;;;;;21.10;10.48;;;;;;;-1.19;100.00;94424.19;2089094;28;20095;-80
2022/01/23 01:12:04;;;;;;;21.38;9.60;;;;;;;-1.23;100.00;94422.50;2097603;28;20024;-81
2022/01/23 01:13:09;;;;;;;22.10;9.95;;;;;;;-1.17;100.00;94416.03;2094520;28;20032;-81
2022/01/23 01:15:39;;;;;;;22.45;9.82;;;;;;;-1.02;100.00;94423.41;2099831;28;20078;-81
2022/01/23 01:31:19;;;;;;;22.05;9.88;;;;;;;-1.30;100.00;94417.72;2100126;28;20028;-81
2022/01/23 01:32:36;;;;;;;20.05;8.98;;;;;;;-1.34;100.00;94419.41;2105940;28;20028;-82
2022/01/23 01:33:49;;;;;;;22.38;10.13;;;;;;;-1.33;100.00;94416.47;2097447;28;20024;-81
2022/01/23 01:35:02;;;;;;;18.65;9.85;;;;;;;-1.34;100.00;94419.41;2092566;28;20017;-80
2022/01/23 01:37:29;;;;;;;22.83;10.13;;;;;;;-1.35;100.00;94423.88;2093621;28;20115;-81
2022/01/23 01:38:32;;;;;;;23.13;10.55;;;;;;;-1.20;100.00;94420.03;2097466;28;20020;-81
2022/01/23 01:39:33;;;;;;;21.13;10.18;;;;;;;-1.14;100.00;94420.63;2081339;28;20106;-82
2022/01/23 01:40:34;;;;;;;24.95;11.30;;;;;;;-1.21;100.00;94418.50;2081254;28;20026;-81
2022/01/23 01:41:41;;;;;;;24.27;10.93;;;;;;;-1.17;100.00;94418.66;2081192;28;20020;-81
2022/01/23 01:42:44;;;;;;;23.58;10.52;;;;;;;-0.98;100.00;94419.09;2074456;28;20432;-82
2022/01/23 01:43:51;;;;;;;22.60;10.57;;;;;;;-1.01;100.00;94419.69;2081834;28;20033;-81
2022/01/23 01:44:52;;;;;;;21.05;10.60;;;;;;;-1.13;100.00;94417.72;2097253;28;20047;-80
2022/01/23 01:45:54;;;;;;;19.58;9.68;;;;;;;-1.20;100.00;94411.38;2097510;28;20028;-80
2022/01/23 01:46:58;;;;;;;20.25;9.93;;;;;;;-1.24;100.00;94418.31;2089272;28;20023;-80
2022/01/23 01:48:02;;;;;;;22.10;9.73;;;;;;;-1.16;100.00;94425.44;2081183;28;20029;-79
2022/01/23 01:49:03;;;;;;;17.52;8.93;;;;;;;-1.06;100.00;94423.25;2089584;28;20033;-80
2022/01/23 01:50:05;;;;;;;20.23;8.85;;;;;;;-1.14;100.00;94418.00;2089244;28;20021;-80
2022/01/23 01:51:11;;;;;;;18.42;8.88;;;;;;;-0.97;100.00;94411.97;2089193;28;20035;-80
2022/01/23 01:52:12;;;;;;;21.10;9.00;;;;;;;-1.23;100.00;94409.38;2093249;28;20021;-81
2022/01/23 01:53:16;;;;;;;19.63;9.60;;;;;;;-1.30;100.00;94409.84;2093874;28;20170;-81
2022/01/23 01:54:19;;;;;;;17.83;9.55;;;;;;;-1.31;100.00;94403.84;2097719;28;20024;-79
2022/01/23 01:55:28;;;;;;;18.25;9.48;;;;;;;-1.31;100.00;94398.59;2089212;28;20057;-81
2022/01/23 01:56:36;;;;;;;21.10;10.40;;;;;;;-1.07;100.00;94405.97;2083070;28;20029;-80
2022/01/23 01:57:43;;;;;;;21.02;9.88;;;;;;;-1.02;100.00;94400.56;2098474;28;20383;-80
2022/01/23 02:00:10;;;;;;;15.73;7.97;;;;;;;-1.07;100.00;94399.97;2088963;28;20028;-80
2022/01/23 02:10:36;;;;;;;;;;;;;;;-1.27;100.00;94399.53;2148662;27;20129;-81
2022/01/23 02:14:07;;;;;;;15.50;8.13;;;;;;;-1.24;100.00;94402.59;2136682;27;20030;-81
2022/01/23 02:15:28;;;;;;;17.73;8.30;;;;;;;-1.22;100.00;94398.59;2119616;27;20069;-80
2022/01/23 02:23:08;;;;;;;;;;;;;;;-1.12;100.00;94393.03;2116760;27;20039;-81
2022/01/23 02:50:55;;;;;;;11.05;6.75;;;;;;;-1.27;100.00;94383.00;2117994;27;20038;-81
2022/01/23 02:52:10;;;;;;;11.73;7.15;;;;;;;-1.30;100.00;94387.00;2118335;28;20020;-81
2022/01/23 02:55:35;;;;;;;12.48;7.53;;;;;;;-1.23;100.00;94389.16;2138246;27;20033;-82
2022/01/23 02:56:47;;;;;;;12.57;7.30;;;;;;;-1.19;100.00;94379.59;2122993;27;20527;-82
2022/01/23 02:57:54;;;;;;;13.35;6.90;;;;;;;-1.23;100.00;94377.91;2122975;27;20028;-82
2022/01/23 02:58:59;;;;;;;11.63;7.13;;;;;;;-1.27;100.00;94378.53;2113531;28;20520;-81
2022/01/23 03:00:17;;;;;;;13.65;7.68;;;;;;;-1.27;100.00;94381.16;2105116;28;20024;-82
2022/01/23 03:01:23;;;;;;;15.68;6.78;;;;;;;-1.32;100.00;94380.53;2109156;28;20492;-82
2022/01/23 03:02:36;;;;;;;13.95;7.45;;;;;;;-1.33;100.00;94374.50;2114006;27;20125;-82
2022/01/23 03:03:42;;;;;;;12.90;7.43;;;;;;;-1.30;100.00;94381.00;2120935;28;20021;-81
2022/01/23 03:04:51;;;;;;;13.93;7.57;;;;;;;-1.35;100.00;94381.94;2098152;28;20160;-81
2022/01/23 03:06:20;;;;;;;13.13;7.78;;;;;;;-1.31;100.00;94375.00;2106539;28;20491;-82
2022/01/23 03:07:51;;;;;;;15.25;7.57;;;;;;;-1.21;100.00;94376.53;2115913;27;20030;-82
2022/01/23 03:11:02;;;;;;;14.57;7.82;;;;;;;-1.24;100.00;94378.97;2121116;27;20023;-81
2022/01/23 03:13:40;;;;;;;12.35;7.25;;;;;;;-1.08;100.00;94375.56;2104283;28;20092;-82
2022/01/23 03:15:05;;;;;;;11.57;7.10;;;;;;;-1.10;100.00;94374.34;2117373;28;20020;-81
2022/01/23 03:24:03;;;;;;;13.40;7.32;;;;;;;-1.12;100.00;94372.03;2115865;28;20064;-81
2022/01/23 03:28:35;;;;;;;12.52;5.90;;;;;;;-1.24;100.00;94371.88;2115594;27;20019;-82
2022/01/23 03:30:02;;;;;;;10.68;6.18;;;;;;;-1.29;100.00;94379.91;2109988;28;20077;-81
2022/01/23 03:31:08;;;;;;;9.55;5.57;;;;;;;-1.32;100.00;94376.06;2095730;28;20602;-81
2022/01/23 03:32:35;;;;;;;8.60;5.53;;;;;;;-1.31;100.00;94379.47;2095738;28;20393;-81
2022/01/23 03:33:34;;;;;;;11.68;6.18;;;;;;;-1.35;100.00;94370.66;2101760;28;20032;-80
2022/01/23 03:34:35;;;;;;;11.52;6.05;;;;;;;-1.32;100.00;94372.66;2114316;28;20023;-82
2022/01/23 03:35:36;;;;;;;10.00;6.30;;;;;;;-1.30;100.00;94378.38;2115407;27;20047;-81
2022/01/23 03:36:38;;;;;;;12.15;6.38;;;;;;;-1.27;100.00;94367.28;2098151;28;20111;-82
2022/01/23 03:37:41;;;;;;;10.52;5.75;;;;;;;-1.38;100.00;94374.66;2090103;28;20489;-81
2022/01/23 03:38:45;;;;;;;9.77;5.70;;;;;;;-1.35;100.00;94375.91;2082361;28;20026;-82
2022/01/23 03:39:47;;;;;;;10.60;6.25;;;;;;;-1.35;100.00;94373.28;2090995;28;20032;-81
2022/01/23 03:40:48;;;;;;;10.23;6.18;;;;;;;-1.38;100.00;94366.03;2091191;28;20048;-81
2022/01/23 03:41:49;;;;;;;10.82;6.43;;;;;;;-1.34;100.00;94361.72;2105145;28;20130;-82
2022/01/23 03:42:56;;;;;;;9.15;6.22;;;;;;;-1.38;100.00;94358.94;2099734;28;20024;-81
2022/01/23 03:44:03;;;;;;;10.40;5.82;;;;;;;-1.32;100.00;94357.72;2097476;28;20025;-82
2022/01/23 03:45:32;;;;;;;8.23;5.47;;;;;;;-1.32;100.00;94351.69;2099887;28;20298;-81
2022/01/23 03:47:40;;;;;;;9.75;5.32;;;;;;;-1.35;100.00;94357.56;2115529;27;20015;-82
2022/01/23 03:50:05;;;;;;;8.45;5.00;;;;;;;-1.39;100.00;94364.50;2087087;28;20041;-81
2022/01/23 03:51:06;;;;;;;8.60;5.63;;;;;;;-1.42;100.00;94362.47;2099985;28;20032;-82
2022/01/23 03:52:10;;;;;;;10.30;5.20;;;;;;;-1.41;100.00;94366.63;2094140;28;20017;-82
2022/01/23 03:53:11;;;;;;;9.25;5.93;;;;;;;-1.38;100.00;94363.41;2102882;28;20046;-81
2022/01/23 03:54:12;;;;;;;7.90;5.10;;;;;;;-1.37;100.00;94367.56;2102240;28;20021;-82
2022/01/23 03:55:13;;;;;;;8.02;5.15;;;;;;;-1.31;100.00;94363.72;2098112;28;20082;-80
2022/01/23 03:56:15;;;;;;;9.25;5.43;;;;;;;-1.34;100.00;94364.34;2107882;28;20019;-82
2022/01/23 03:57:16;;;;;;;10.25;5.82;;;;;;;-1.28;100.00;94361.22;2104256;28;20492;-81
2022/01/23 03:58:17;;;;;;;11.95;6.40;;;;;;;-1.34;100.00;94359.84;2089806;28;20029;-81
2022/01/23 03:59:18;;;;;;;8.77;5.65;;;;;;;-1.36;100.00;94363.84;2092471;28;20024;-81
2022/01/23 04:00:19;;;;;;;7.97;5.18;;;;;;;-1.34;100.00;94370.34;2109118;28;20024;-81
2022/01/23 04:01:20;;;;;;;11.90;6.25;;;;;;;-1.27;100.00;94370.66;2112263;28;20035;-81
2022/01/23 04:02:21;;;;;;;11.63;6.20;;;;;;;-1.22;100.00;94366.34;2114826;28;20019;-80
2022/01/23 04:03:22;;;;;;;9.25;5.65;;;;;;;-1.12;100.00;94368.63;2102304;28;20020;-82
2022/01/23 04:05:25;;;;;;;10.15;5.78;;;;;;;-1.12;100.00;94369.41;2108474;28;20097;-81
2022/01/23 04:06:29;;;;;;;8.05;5.28;;;;;;;-1.15;100.00;94366.63;2111871;28;20484;-81
2022/01/23 04:07:31;;;;;;;8.23;5.30;;;;;;;-1.04;100.00;94373.13;2106668;28;20032;-81
2022/01/23 04:08:33;;;;;;;8.43;5.57;;;;;;;-1.06;100.00;94373.41;2114133;27;20441;-82
2022/01/23 04:09:34;;;;;;;8.98;5.32;;;;;;;-1.17;100.00;94374.81;2098915;28;20091;-80
2022/01/23 04:10:35;;;;;;;9.40;5.75;;;;;;;-1.23;100.00;94378.66;2097318;28;20512;-81
2022/01/23 04:11:36;;;;;;;9.05;5.95;;;;;;;-1.26;100.00;94379.31;2090143;28;20021;-82
2022/01/23 04:16:37;;;;;;;12.18;6.15;;;;;;;-1.30;100.00;94373.91;2107806;27;20016;-81
2022/01/23 04:18:27;;;;;;;8.15;4.93;;;;;;;-1.27;100.00;94383.00;2109928;28;20121;-81
2022/01/23 04:19:28;;;;;;;10.48;5.13;;;;;;;-1.28;100.00;94376.19;2111757;27;20031;-81
2022/01/23 04:33:41;;;;;;;9.25;5.32;;;;;;;-1.26;100.00;94387.16;2100755;27;20040;-81
2022/01/23 04:34:18;;;;;;;8.90;4.90;;;;;;;-1.19;100.00;94395.31;2109378;27;20049;-81
2022/01/23 04:46:35;;;;;;;14.48;6.55;;;;;;;-1.21;100.00;94400.13;2113752;28;20028;-81
2022/01/23 04:59:40;;;;;;;12.23;7.15;;;;;;;-1.22;100.00;94409.09;2089815;28;20029;-81
2022/01/23 05:00:52;;;;;;;13.27;7.07;;;;;;;-1.23;100.00;94402.28;2095137;27;20127;-80
2022/01/23 05:04:45;;;;;;;11.75;6.85;;;;;;;-1.12;100.00;94410.63;2073046;28;20129;-82
2022/01/23 05:05:49;;;;;;;12.07;6.90;;;;;;;-1.14;100.00;94416.19;2073099;28;20037;-80
2022/01/23 05:07:07;;;;;;;12.40;7.20;;;;;;;-1.16;100.00;94407.06;2081332;28;20490;-80
2022/01/23 05:08:16;;;;;;;13.10;7.45;;;;;;;-1.12;100.00;94400.88;2090412;28;20037;-81
2022/01/23 05:09:18;;;;;;;9.93;6.18;;;;;;;-1.22;100.00;94400.44;2076812;28;20025;-81
2022/01/23 05:10:19;;;;;;;13.60;7.38;;;;;;;-1.22;100.00;94408.31;2093081;27;20126;-80
2022/01/23 05:11:22;;;;;;;11.55;6.78;;;;;;;-1.17;100.00;94405.53;2100278;28;20016;-81
2022/01/23 05:12:27;;;;;;;12.00;7.05;;;;;;;-1.18;100.00;94411.88;2095762;28;20028;-81
2022/01/23 05:13:32;;;;;;;12.85;7.00;;;;;;;-1.20;100.00;94409.53;2098785;28;20028;-81
2022/01/23 05:14:38;;;;;;;14.20;7.03;;;;;;;-1.17;100.00;94410.78;2098980;28;20063;-82
2022/01/23 05:15:39;;;;;;;14.38;7.82;;;;;;;-1.24;100.00;94423.56;2097211;28;20048;-81
2022/01/23 05:16:40;;;;;;;15.20;7.82;;;;;;;-1.24;100.00;94420.94;2081114;28;20363;-81
2022/01/23 05:17:41;;;;;;;15.40;8.32;;;;;;;-1.30;100.00;94425.59;2105729;28;20693;-81
2022/01/23 05:18:43;;;;;;;19.02;9.32;;;;;;;-1.28;100.00;94420.78;2097737;28;20423;-82
2022/01/23 05:19:45;;;;;;;17.52;9.10;;;;;;;-1.31;100.00;94424.06;2097030;28;20032;-81
2022/01/23 05:20:48;;;;;;;21.27;9.68;;;;;;;-1.23;100.00;94420.63;2098475;28;20031;-80
2022/01/23 05:22:19;;;;;;;23.70;9.48;;;;;;;-1.19;100.00;94421.56;2121382;27;20019;-80
2022/01/23 05:23:19;;;;;;;;;;;;;;;-1.28;100.00;94429.44;2107571;28;20024;-81
2022/01/23 05:24:26;;;;;;;18.15;8.15;;;;;;;-1.24;100.00;94434.84;2091872;28;19909;-80
2022/01/23 05:25:34;;;;;;;14.40;7.78;;;;;;;-1.12;100.00;94429.75;2107030;27;20047;-81
2022/01/23 05:26:42;;;;;;;16.63;8.70;;;;;;;-1.11;100.00;94426.03;2106546;28;20111;-81
2022/01/23 05:27:44;;;;;;;17.15;9.63;;;;;;;-1.11;100.00;94422.66;2098905;28;20119;-82
2022/01/23 05:28:45;;;;;;;17.92;9.43;;;;;;;-1.12;100.00;94426.34;2113626;28;20020;-80
2022/01/23 05:29:46;;;;;;;18.63;9.05;;;;;;;-1.15;100.00;94425.09;2114614;27;20061;-81
2022/01/23 05:30:48;;;;;;;17.38;9.63;;;;;;;-1.21;100.00;94420.34;2104724;28;20051;-81
2022/01/23 05:31:51;;;;;;;19.33;10.05;;;;;;;-1.24;100.00;94421.72;2111571;27;20149;-82
2022/01/23 05:32:54;;;;;;;20.48;9.85;;;;;;;-1.29;100.00;94420.03;2121495;27;20026;-81
2022/01/23 05:33:55;;;;;;;18.83;9.32;;;;;;;-1.17;100.00;94422.03;2100913;28;20104;-82
2022/01/23 05:34:56;;;;;;;21.77;10.13;;;;;;;-1.31;100.00;94424.06;2111902;28;20030;-81
2022/01/23 05:35:57;;;;;;;17.50;9.30;;;;;;;-1.35;100.00;94420.50;2107733;28;20090;-81
2022/01/23 05:36:59;;;;;;;23.15;9.65;;;;;;;-1.31;100.00;94413.56;2105358;28;20035;-81
2022/01/23 05:38:00;;;;;;;22.90;9.05;;;;;;;-1.30;100.00;94409.84;2116362;27;20082;-81
2022/01/23 05:39:01;;;;;;;17.77;9.07;;;;;;;-1.32;100.00;94412.00;2099545;28;20398;-81
2022/01/23 05:40:03;;;;;;;21.05;8.93;;;;;;;-1.17;100.00;94403.69;2099619;28;20881;-81
2022/01/23 05:41:04;;;;;;;21.30;9.98;;;;;;;-1.14;100.00;94405.69;2108064;28;20380;-81
2022/01/23 05:42:07;;;;;;;22.15;9.90;;;;;;;-1.13;100.00;94419.56;2094701;28;20079;-81
2022/01/23 05:43:08;;;;;;;24.15;10.27;;;;;;;-1.13;100.00;94411.69;2098115;28;20028;-82
2022/01/23 05:44:09;;;;;;;19.27;10.05;;;;;;;-1.14;100.00;94405.69;2099597;28;20342;-81
2022/01/23 05:45:12;;;;;;;21.83;10.38;;;;;;;-1.17;100.00;94408.16;2117403;27;20053;-81
2022/01/23 05:46:16;;;;;;;19.55;10.25;;;;;;;-1.18;100.00;94409.25;2109558;28;20061;-81
2022/01/23 05:47:20;;;;;;;20.02;10.07;;;;;;;-1.13;100.00;94403.84;2102580;27;20156;-82
2022/01/23 05:48:21;;;;;;;21.73;10.40;;;;;;;-1.14;100.00;94418.81;2105758;28;20076;-82
2022/01/23 05:49:24;;;;;;;21.65;10.65;;;;;;;-1.14;100.00;94410.94;2092560;28;20072;-81
2022/01/23 05:50:25;;;;;;;20.90;10.63;;;;;;;-1.06;100.00;94419.88;2099268;28;20029;-80
2022/01/23 05:51:26;;;;;;;19.85;10.07;;;;;;;-1.13;100.00;94415.09;2092764;28;20028;-81
2022/01/23 05:52:28;;;;;;;23.80;11.15;;;;;;;-1.19;100.00;94415.53;2098852;28;20024;-82
2022/01/23 05:53:34;;;;;;;24.63;10.80;;;;;;;-1.14;100.00;94415.38;2112224;28;20022;-81
2022/01/23 05:54:40;;;;;;;24.52;10.32;;;;;;;-1.12;100.00;94405.38;2098756;28;20043;-81
2022/01/23 05:55:41;;;;;;;19.33;9.88;;;;;;;-1.14;100.00;94410.94;2106019;28;20019;-81
2022/01/23 05:56:42;;;;;;;24.48;11.55;;;;;;;-1.14;100.00;94410.13;2088848;28;20520;-81
2022/01/23 05:57:43;;;;;;;27.30;12.38;;;;;;;-1.13;100.00;94409.09;2100089;28;20120;-82
2022/01/23 05:58:44;;;;;;;26.00;11.60;;;;;;;-1.14;100.00;94405.69;2121875;27;20027;-81
2022/01/23 05:59:45;;;;;;;27.73;12.25;;;;;;;-1.08;100.00;94416.78;2114390;28;20042;-80
2022/01/23 06:00:46;;;;;;;29.50;12.02;;;;;;;-1.02;100.00;94418.16;2104637;28;20115;-81
2022/01/23 06:01:51;;;;;;;24.30;11.00;;;;;;;-1.15;100.00;94419.88;2090712;28;20029;-81
2022/01/23 06:02:53;;;;;;;24.38;11.55;;;;;;;-1.10;100.00;94417.09;2113952;28;20024;-81
2022/01/23 06:03:55;;;;;;;19.42;10.05;;;;;;;-0.91;100.00;94416.00;2099231;28;20020;-81
2022/01/23 06:04:56;;;;;;;25.50;11.68;;;;;;;-0.94;100.00;94419.25;2097464;28;20066;-81
2022/01/23 06:05:57;;;;;;;24.40;11.57;;;;;;;-0.68;100.00;94422.59;2099739;28;20055;-80
2022/01/23 06:06:59;;;;;;;24.52;11.75;;;;;;;-0.89;100.00;94429.59;2097290;28;20025;-81
2022/01/23 06:08:01;;;;;;;23.67;11.60;;;;;;;-0.95;100.00;94423.72;2103283;28;20480;-81
2022/01/23 06:09:03;;;;;;;26.30;11.60;;;;;;;-0.92;100.00;94433.63;2097657;28;20100;-81
2022/01/23 06:10:05;;;;;;;28.25;11.88;;;;;;;-1.06;100.00;94435.59;2108513;28;20048;-81
2022/01/23 06:11:11;;;;;;;24.77;11.70;;;;;;;-1.12;100.00;94429.75;2119768;27;20030;-81
2022/01/23 06:12:12;;;;;;;24.88;12.07;;;;;;;-1.13;100.00;94422.97;2114083;28;20031;-82
2022/01/23 06:13:13;;;;;;;25.58;11.15;;;;;;;-1.03;100.00;94422.66;2109485;28;20119;-81
2022/01/23 06:14:18;;;;;;;23.80;10.88;;;;;;;-1.09;100.00;94431.75;2101834;28;20613;-81
2022/01/23 06:15:20;;;;;;;24.42;11.18;;;;;;;-1.13;100.00;94425.59;2093040;28;20521;-80
2022/01/23 06:16:21;;;;;;;23.42;11.20;;;;;;;-1.09;100.00;94421.28;2095035;28;20405;-81
2022/01/23 06:17:23;;;;;;;26.27;11.32;;;;;;;-0.94;100.00;94421.88;2099922;28;20048;-82
2022/01/23 06:18:25;;;;;;;25.55;11.30;;;;;;;-0.97;100.00;94420.63;2103316;28;20065;-82
2022/01/23 06:19:26;;;;;;;26.30;11.18;;;;;;;-1.05;100.00;94419.56;2099636;28;20115;-81
2022/01/23 06:20:28;;;;;;;25.80;11.52;;;;;;;-1.10;100.00;94418.94;2108700;28;20016;-82
2022/01/23 06:21:29;;;;;;;27.52;11.77;;;;;;;-1.18;100.00;94417.09;2103946;28;20065;-83
2022/01/23 06:22:35;;;;;;;24.48;10.88;;;;;;;-1.18;100.00;94414.50;2098679;28;20358;-83
2022/01/23 06:23:36;;;;;;;26.10;11.60;;;;;;;-1.17;100.00;94408.91;2097710;28;20024;-81
2022/01/23 06:24:44;;;;;;;23.20;11.30;;;;;;;-1.17;100.00;94406.31;2097675;28;20497;-81
2022/01/23 06:25:47;;;;;;;22.40;10.95;;;;;;;-1.21;100.00;94413.25;2091138;28;20033;-81
2022/01/23 06:26:52;;;;;;;22.80;10.85;;;;;;;-1.19;100.00;94410.31;2105181;28;20042;-82
2022/01/23 06:27:53;;;;;;;25.48;11.45;;;;;;;-1.23;100.00;94409.38;2092206;28;20021;-82
2022/01/23 06:29:02;;;;;;;30.15;12.20;;;;;;;-1.20;100.00;94416.63;2099134;28;20024;-81
2022/01/23 06:30:03;;;;;;;24.23;12.15;;;;;;;-1.20;100.00;94417.41;2103587;28;20036;-81
2022/01/23 06:31:04;;;;;;;26.17;11.13;;;;;;;-1.19;100.00;94421.56;2108877;28;20024;-82
2022/01/23 06:32:06;;;;;;;22.55;11.75;;;;;;;-1.20;100.00;94422.66;2113875;28;20102;-82
2022/01/23 06:33:07;;;;;;;27.23;11.50;;;;;;;-1.20;100.00;94424.50;2110515;28;20020;-81
2022/01/23 06:34:09;;;;;;;27.30;11.68;;;;;;;-1.20;100.00;94419.25;2118077;28;20026;-81
2022/01/23 06:35:14;;;;;;;29.83;12.93;;;;;;;-1.18;100.00;94419.72;2109714;28;20476;-80
2022/01/23 06:36:15;;;;;;;29.20;13.80;;;;;;;-1.19;100.00;94413.69;2093537;28;20102;-81
2022/01/23 06:37:17;;;;;;;29.90;12.68;;;;;;;-1.19;100.00;94416.31;2088861;28;20017;-81
2022/01/23 06:38:18;;;;;;;26.63;13.38;;;;;;;-1.15;100.00;94412.00;2092768;28;20180;-81
2022/01/23 06:39:22;;;;;;;29.27;14.32;;;;;;;-1.17;100.00;94416.78;2097249;28;20021;-82
2022/01/23 06:40:23;;;;;;;29.23;14.00;;;;;;;-1.14;100.00;94413.56;2106074;28;20025;-83
2022/01/23 06:41:52;;;;;;;25.48;13.00;;;;;;;-1.19;100.00;94403.19;2113482;28;20030;-82
2022/01/23 06:42:53;;;;;;;25.15;11.18;;;;;;;-1.16;100.00;94402.59;2105433;28;20035;-82
2022/01/23 06:43:54;;;;;;;26.80;12.43;;;;;;;-1.16;100.00;94402.59;2109239;28;20035;-82
2022/01/23 06:44:57;;;;;;;26.77;11.65;;;;;;;-1.17;100.00;94410.78;2106145;28;20023;-81
2022/01/23 06:45:58;;;;;;;28.73;12.68;;;;;;;-1.18;100.00;94417.88;2106248;28;20024;-81
2022/01/23 06:47:00;;;;;;;28.88;12.30;;;;;;;-1.27;100.00;94417.09;2100209;28;20024;-82
2022/01/23 06:48:01;;;;;;;26.38;12.57;;;;;;;-1.20;100.00;94414.78;2099607;28;20107;-82
2022/01/23 06:49:02;;;;;;;23.42;12.20;;;;;;;-1.19;100.00;94420.78;2111870;28;20500;-80
2022/01/23 06:50:04;;;;;;;29.73;13.18;;;;;;;-1.14;100.00;94412.75;2096768;28;20028;-81
2022/01/23 06:51:05;;;;;;;23.27;11.77;;;;;;;-1.15;100.00;94412.00;2097463;28;20443;-82
2022/01/23 06:52:08;;;;;;;27.80;12.95;;;;;;;-1.25;100.00;94419.41;2097047;28;20070;-80
2022/01/23 06:53:09;;;;;;;23.25;12.20;;;;;;;-1.31;100.00;94418.81;2099702;28;20073;-81
2022/01/23 06:54:11;;;;;;;26.27;12.00;;;;;;;-1.28;100.00;94426.03;2105489;28;20060;-82
2022/01/23 06:55:12;;;;;;;24.25;12.07;;;;;;;-1.24;100.00;94428.81;2101266;28;20119;-81
2022/01/23 06:56:17;;;;;;;28.73;13.07;;;;;;;-1.25;100.00;94428.06;2097035;28;20051;-82
2022/01/23 06:57:21;;;;;;;28.73;14.23;;;;;;;-1.22;100.00;94424.06;2090985;28;20025;-81
2022/01/23 06:58:22;;;;;;;32.75;16.20;;;;;;;-1.29;100.00;94427.13;2107250;28;20382;-81
2022/01/23 06:59:23;;;;;;;30.15;16.13;;;;;;;-1.28;100.00;94424.19;2090433;28;20108;-79
2022/01/23 07:00:23;;;;;;;31.02;16.77;;;;;;;-1.25;100.00;94430.66;2094579;28;20029;-80
2022/01/23 07:01:24;;;;;;;37.28;16.63;;;;;;;-1.21;100.00;94428.97;2102791;28;20381;-81
2022/01/23 07:02:28;;;;;;;30.95;15.88;;;;;;;-1.21;100.00;94431.59;2106399;28;20448;-81
2022/01/23 07:03:32;;;;;;;28.55;14.10;;;;;;;-1.12;100.00;94429.75;2094927;28;20417;-80
2022/01/23 07:08:51;;;;;;;22.38;11.98;;;;;;;-1.16;100.00;94449.81;2105949;27;20126;-80
2022/01/23 07:09:59;;;;;;;22.05;11.05;;;;;;;-1.13;100.00;94461.53;2119861;27;20422;-81
2022/01/23 07:11:07;;;;;;;22.52;10.77;;;;;;;-1.14;100.00;94470.47;2092848;28;20383;-80
2022/01/23 07:14:18;;;;;;;19.30;9.43;;;;;;;-1.00;100.00;94470.34;2094110;28;20481;-81
2022/01/23 07:15:25;;;;;;;21.20;10.45;;;;;;;-1.07;100.00;94461.06;2091462;28;20104;-82
2022/01/23 07:19:27;;;;;;;20.27;10.20;;;;;;;-1.12;100.00;94466.47;2082531;28;20054;-82
2022/01/23 07:20:27;;;;;;;18.42;9.80;;;;;;;-1.08;100.00;94472.66;2097151;28;20123;-82
2022/01/23 07:21:39;;;;;;;24.45;11.65;;;;;;;-0.99;100.00;94469.25;2103411;28;20030;-82
2022/01/23 07:23:30;;;;;;;23.63;11.82;;;;;;;-0.90;100.00;94465.56;2090815;28;20058;-82
2022/01/23 07:25:05;;;;;;;21.90;11.43;;;;;;;-0.98;100.00;94474.19;2088148;28;20493;-82
2022/01/23 07:27:15;;;;;;;24.88;11.38;;;;;;;-1.06;100.00;94472.34;2101481;28;20020;-81
2022/01/23 07:28:19;;;;;;;24.42;11.00;;;;;;;-1.04;100.00;94478.84;2111054;28;20179;-82